createdAt,value
2023-02-22T00:00:50.136Z,20.07
2023-02-22T00:03:24.844Z,21.43
2023-02-22T00:05:55.721Z,19.17
2023-02-22T00:08:25.527Z,19.70
2023-02-22T00:10:55.332Z,19.17
2023-02-22T00:13:23.349Z,18.50
2023-02-22T00:15:51.180Z,17.77
2023-02-22T00:18:20.128Z,17.47
2023-02-22T00:20:48.112Z,18.47
2023-02-22T00:23:19.455Z,17.97
2023-02-22T00:25:48.356Z,18.40
2023-02-22T00:28:18.859Z,17.63
2023-02-22T00:30:48.238Z,16.80
2023-02-22T00:33:17.831Z,18.40
2023-02-22T00:35:46.583Z,18.00
2023-02-22T00:38:16.333Z,16.93
2023-02-22T00:40:45.197Z,17.67
2023-02-22T00:43:13.247Z,17.07
2023-02-22T00:45:43.333Z,17.77
2023-02-22T00:48:11.697Z,18.73
2023-02-22T00:50:39.433Z,17.60
2023-02-22T00:53:09.218Z,17.00
2023-02-22T00:55:38.614Z,18.63
2023-02-22T00:58:07.879Z,19.70
2023-02-22T01:00:38.176Z,20.20
2023-02-22T01:03:08.267Z,18.50
2023-02-22T01:05:36.452Z,18.80
2023-02-22T01:08:07.530Z,20.80
2023-02-22T01:10:35.517Z,21.13
2023-02-22T01:13:08.382Z,31.50
2023-02-22T01:15:38.173Z,38.00
2023-02-22T01:18:08.012Z,26.30
2023-02-22T01:20:36.841Z,21.33
2023-02-22T01:23:07.829Z,20.00
2023-02-22T01:25:36.921Z,17.73
2023-02-22T01:28:06.889Z,18.53
2023-02-22T01:30:36.560Z,20.53
2023-02-22T01:33:06.467Z,19.27
2023-02-22T01:35:37.425Z,19.60
2023-02-22T01:38:05.432Z,19.90
2023-02-22T01:40:35.492Z,19.40
2023-02-22T01:43:06.538Z,19.53
2023-02-22T01:45:44.153Z,20.30
2023-02-22T01:48:16.242Z,18.70
2023-02-22T01:50:49.481Z,19.17
2023-02-22T01:53:20.067Z,20.17
2023-02-22T01:55:48.767Z,18.67
2023-02-22T01:58:18.168Z,18.90
2023-02-22T02:00:45.959Z,18.43
2023-02-22T02:03:18.912Z,20.37
2023-02-22T02:05:49.135Z,19.47
2023-02-22T02:08:28.632Z,20.00
2023-02-22T02:10:57.940Z,18.03
2023-02-22T02:13:26.675Z,18.77
2023-02-22T02:15:56.079Z,18.63
2023-02-22T02:18:25.444Z,20.57
2023-02-22T02:21:11.854Z,19.50
2023-02-22T02:24:11.915Z,19.37
2023-02-22T02:27:09.676Z,16.97
2023-02-22T02:30:19.339Z,16.80
2023-02-22T02:32:54.833Z,16.63
2023-02-22T02:35:36.737Z,17.73
2023-02-22T02:38:14.632Z,17.03
2023-02-22T02:40:49.240Z,17.37
2023-02-22T02:43:27.795Z,17.50
2023-02-22T02:46:00.121Z,16.63
2023-02-22T02:48:34.199Z,16.63
2023-02-22T02:51:07.837Z,14.83
2023-02-22T02:53:39.396Z,17.93
2023-02-22T02:56:07.846Z,14.67
2023-02-22T02:58:44.899Z,15.57
2023-02-22T03:01:15.722Z,15.97
2023-02-22T03:03:58.039Z,16.83
2023-02-22T03:07:11.275Z,16.17
2023-02-22T03:09:47.694Z,16.20
2023-02-22T03:12:29.046Z,16.90
2023-02-22T03:15:07.388Z,16.37
2023-02-22T03:17:48.604Z,16.33
2023-02-22T03:20:31.633Z,15.90
2023-02-22T03:23:07.975Z,16.33
2023-02-22T03:25:39.635Z,15.67
2023-02-22T03:28:11.577Z,17.00
2023-02-22T03:30:44.272Z,17.70
2023-02-22T03:33:20.465Z,16.47
2023-02-22T03:35:56.738Z,17.53
2023-02-22T03:38:29.704Z,17.13
2023-02-22T03:41:02.220Z,16.30
2023-02-22T03:43:35.137Z,17.93
2023-02-22T03:46:06.564Z,17.90
2023-02-22T03:48:40.784Z,18.17
2023-02-22T03:51:11.163Z,16.43
2023-02-22T03:53:39.005Z,16.97
2023-02-22T03:56:12.208Z,16.40
2023-02-22T03:58:43.980Z,15.03
2023-02-22T04:01:12.809Z,15.10
2023-02-22T04:03:42.124Z,14.87
2023-02-22T04:06:11.819Z,14.07
2023-02-22T04:08:40.302Z,14.10
2023-02-22T04:11:08.742Z,14.63
2023-02-22T04:13:36.516Z,14.87
2023-02-22T04:16:04.323Z,14.67
2023-02-22T04:18:32.570Z,13.53
2023-02-22T04:21:01.246Z,14.37
2023-02-22T04:23:36.552Z,13.80
2023-02-22T04:26:04.535Z,13.83
2023-02-22T04:28:32.433Z,12.97
2023-02-22T04:31:26.252Z,14.40
2023-02-22T04:33:56.202Z,13.67
2023-02-22T04:36:28.741Z,14.50
2023-02-22T04:38:58.345Z,13.67
2023-02-22T04:41:28.396Z,14.90
2023-02-22T04:43:56.203Z,14.10
2023-02-22T04:46:27.358Z,14.23
2023-02-22T04:48:55.657Z,14.90
2023-02-22T04:51:26.387Z,16.13
2023-02-22T04:54:21.362Z,14.63
2023-02-22T04:56:49.476Z,15.27
2023-02-22T04:59:17.445Z,15.23
2023-02-22T05:01:47.756Z,14.80
2023-02-22T05:04:15.523Z,14.13
2023-02-22T05:06:54.971Z,14.00
2023-02-22T05:09:24.275Z,15.40
2023-02-22T05:11:52.219Z,14.87
2023-02-22T05:14:20.027Z,15.50
2023-02-22T05:16:49.571Z,15.13
2023-02-22T05:19:17.413Z,16.43
2023-02-22T05:21:45.210Z,17.03
2023-02-22T05:24:12.960Z,16.23
2023-02-22T05:26:42.174Z,17.10
2023-02-22T05:29:09.932Z,15.00
2023-02-22T05:31:37.803Z,15.87
2023-02-22T05:34:05.626Z,16.00
2023-02-22T05:36:47.931Z,15.23
2023-02-22T05:39:16.091Z,15.80
2023-02-22T05:41:45.279Z,15.67
2023-02-22T05:44:12.964Z,15.90
2023-02-22T05:46:40.687Z,14.37
2023-02-22T05:49:08.482Z,12.87
2023-02-22T05:51:36.262Z,13.03
2023-02-22T05:54:04.155Z,12.47
2023-02-22T05:56:31.913Z,12.37
2023-02-22T05:59:01.055Z,12.43
2023-02-22T06:01:29.119Z,12.17
2023-02-22T06:03:56.918Z,12.70
2023-02-22T06:06:24.651Z,12.33
2023-02-22T06:08:52.456Z,11.70
2023-02-22T06:11:20.553Z,12.00
2023-02-22T06:13:51.089Z,11.53
2023-02-22T06:16:21.103Z,11.17
2023-02-22T06:18:49.092Z,10.43
2023-02-22T06:21:17.486Z,11.40
2023-02-22T06:23:45.511Z,10.03
2023-02-22T06:26:13.510Z,9.57
2023-02-22T06:28:41.567Z,8.63
2023-02-22T06:31:09.369Z,9.67
2023-02-22T06:33:38.621Z,9.97
2023-02-22T06:36:07.113Z,8.97
2023-02-22T06:38:34.876Z,9.17
2023-02-22T06:41:02.826Z,10.33
2023-02-22T06:43:30.611Z,10.50
2023-02-22T06:45:58.316Z,12.27
2023-02-22T06:48:26.007Z,11.30
2023-02-22T06:50:55.146Z,12.00
2023-02-22T06:53:22.835Z,12.70
2023-02-22T06:55:50.723Z,12.23
2023-02-22T06:58:18.559Z,13.67
2023-02-22T07:00:46.608Z,12.80
2023-02-22T07:03:14.460Z,13.17
2023-02-22T07:05:42.265Z,12.73
2023-02-22T07:08:12.133Z,13.27
2023-02-22T07:10:41.003Z,13.80
2023-02-22T07:13:09.687Z,12.93
2023-02-22T07:15:37.810Z,13.17
2023-02-22T07:18:05.708Z,14.70
2023-02-22T07:20:34.235Z,14.83
2023-02-22T07:23:02.312Z,14.87
2023-02-22T07:25:31.645Z,14.80
2023-02-22T07:27:59.643Z,14.60
2023-02-22T07:30:30.990Z,14.00
2023-02-22T07:33:00.033Z,14.47
2023-02-22T07:35:29.545Z,14.97
2023-02-22T07:37:57.858Z,14.93
2023-02-22T07:40:27.174Z,15.80
2023-02-22T07:42:59.446Z,14.30
2023-02-22T07:45:29.840Z,14.57
2023-02-22T07:47:58.440Z,15.40
2023-02-22T07:50:27.578Z,14.90
2023-02-22T07:52:57.326Z,14.93
2023-02-22T07:55:27.903Z,15.83
2023-02-22T07:57:59.227Z,15.93
2023-02-22T08:00:29.649Z,17.97
2023-02-22T08:02:57.845Z,18.37
2023-02-22T08:05:27.883Z,18.57
2023-02-22T08:07:56.066Z,17.37
2023-02-22T08:10:25.930Z,16.97
2023-02-22T08:12:54.586Z,16.23
2023-02-22T08:15:25.955Z,17.67
2023-02-22T08:17:54.441Z,17.07
2023-02-22T08:20:22.467Z,16.20
2023-02-22T08:22:50.653Z,17.80
2023-02-22T08:25:20.353Z,17.93
2023-02-22T08:27:49.034Z,17.33
2023-02-22T08:30:18.890Z,17.50
2023-02-22T08:32:48.989Z,16.57
2023-02-22T08:35:18.253Z,19.77
2023-02-22T08:37:46.403Z,17.13
2023-02-22T08:40:17.756Z,18.17
2023-02-22T08:42:45.990Z,17.50
2023-02-22T08:45:14.320Z,17.23
2023-02-22T08:47:42.980Z,19.00
2023-02-22T08:50:18.684Z,16.10
2023-02-22T08:52:46.433Z,16.63
2023-02-22T08:55:14.965Z,15.43
2023-02-22T08:57:42.772Z,16.70
2023-02-22T09:00:11.879Z,16.93
2023-02-22T09:02:39.688Z,16.53
2023-02-22T09:05:08.514Z,17.33
2023-02-22T09:07:37.780Z,15.60
2023-02-22T09:10:06.143Z,16.67
2023-02-22T09:12:33.923Z,17.23
2023-02-22T09:15:01.706Z,16.90
2023-02-22T09:17:29.509Z,16.53
2023-02-22T09:19:57.298Z,15.97
2023-02-22T09:22:25.057Z,16.13
2023-02-22T09:24:56.990Z,15.93
2023-02-22T09:27:28.194Z,16.27
2023-02-22T09:29:56.945Z,16.07
2023-02-22T09:32:27.627Z,15.57
2023-02-22T09:34:55.800Z,17.73
2023-02-22T09:37:23.958Z,19.17
2023-02-22T09:39:52.283Z,22.03
2023-02-22T09:42:30.852Z,21.40
2023-02-22T09:45:05.909Z,19.30
2023-02-22T09:47:41.919Z,18.83
2023-02-22T09:50:16.534Z,18.77
2023-02-22T09:52:54.705Z,17.93
2023-02-22T09:55:34.186Z,18.20
2023-02-22T09:58:07.272Z,16.53
2023-02-22T10:00:38.558Z,17.70
2023-02-22T10:03:20.463Z,16.97
2023-02-22T10:05:54.140Z,16.80
2023-02-22T10:08:22.111Z,15.80
2023-02-22T10:11:00.285Z,17.27
2023-02-22T10:13:39.305Z,20.30
2023-02-22T10:16:17.317Z,21.33
2023-02-22T10:19:03.490Z,22.47
2023-02-22T10:21:42.564Z,18.60
2023-02-22T10:24:23.572Z,17.00
2023-02-22T10:26:52.144Z,15.40
2023-02-22T10:29:31.395Z,16.43
2023-02-22T10:32:03.040Z,19.20
2023-02-22T10:34:34.939Z,20.53
2023-02-22T10:37:17.552Z,15.00
2023-02-22T10:39:46.670Z,14.63
2023-02-22T10:42:15.741Z,15.10
2023-02-22T10:44:44.871Z,13.50
2023-02-22T10:47:18.137Z,13.20
2023-02-22T10:49:50.724Z,12.67
2023-02-22T10:52:24.643Z,12.60
2023-02-22T10:54:54.437Z,13.23
2023-02-22T10:57:27.457Z,14.73
2023-02-22T10:59:57.792Z,14.10
2023-02-22T11:02:31.142Z,14.03
2023-02-22T11:05:00.640Z,13.50
2023-02-22T11:07:30.842Z,12.87
2023-02-22T11:10:00.778Z,12.97
2023-02-22T11:12:31.964Z,13.63
2023-02-22T11:15:27.717Z,12.50
2023-02-22T11:17:57.771Z,12.20
2023-02-22T11:20:28.083Z,11.03
2023-02-22T11:22:58.219Z,10.40
2023-02-22T11:25:28.387Z,10.53
2023-02-22T11:27:59.931Z,10.70
2023-02-22T11:30:33.042Z,11.07
2023-02-22T11:33:11.883Z,10.38
2023-02-22T11:35:50.117Z,8.50
2023-02-22T11:38:22.038Z,9.23
2023-02-22T11:41:14.487Z,8.73
2023-02-22T11:43:42.482Z,8.30
2023-02-22T11:46:15.820Z,8.60
2023-02-22T11:48:55.119Z,7.97
2023-02-22T11:51:36.877Z,8.20
2023-02-22T11:54:38.099Z,8.15
2023-02-22T11:57:21.997Z,7.90
2023-02-22T12:00:02.478Z,8.00
2023-02-22T12:02:57.436Z,9.50
2023-02-22T12:05:37.249Z,8.77
2023-02-22T12:08:19.975Z,8.90
2023-02-22T12:11:03.382Z,7.87
2023-02-22T12:13:41.155Z,8.00
2023-02-22T12:16:19.711Z,7.68
2023-02-22T12:19:03.513Z,7.97
2023-02-22T12:21:33.904Z,6.93
2023-02-22T12:24:05.530Z,7.85
2023-02-22T12:26:38.768Z,6.88
2023-02-22T12:29:14.494Z,6.50
2023-02-22T12:31:46.546Z,6.72
2023-02-22T12:34:30.499Z,6.88
2023-02-22T12:37:11.581Z,6.13
2023-02-22T12:39:53.569Z,6.50
2023-02-22T12:42:29.278Z,5.97
2023-02-22T12:45:02.195Z,5.38
2023-02-22T12:47:36.921Z,5.63
2023-02-22T12:50:15.843Z,5.50
2023-02-22T12:52:48.888Z,6.30
2023-02-22T12:55:25.051Z,5.88
2023-02-22T12:58:01.976Z,5.87
2023-02-22T13:00:40.489Z,5.70
2023-02-22T13:03:28.339Z,5.75
2023-02-22T13:06:18.647Z,5.60
2023-02-22T13:08:55.403Z,5.68
2023-02-22T13:11:32.425Z,5.38
2023-02-22T13:14:16.538Z,5.47
2023-02-22T13:16:53.516Z,6.03
2023-02-22T13:19:41.974Z,5.70
2023-02-22T13:22:16.984Z,6.13
2023-02-22T13:24:58.552Z,5.55
2023-02-22T13:27:31.425Z,6.17
2023-02-22T13:30:01.435Z,6.07
2023-02-22T13:32:43.579Z,6.20
2023-02-22T13:35:26.249Z,6.10
2023-02-22T13:38:21.243Z,5.65
2023-02-22T13:41:09.879Z,6.63
2023-02-22T13:43:52.768Z,7.03
2023-02-22T13:46:44.077Z,6.68
2023-02-22T13:49:37.537Z,6.75
2023-02-22T13:52:12.112Z,7.10
2023-02-22T13:54:46.550Z,7.32
2023-02-22T13:57:22.562Z,7.43
2023-02-22T14:00:11.270Z,8.27
2023-02-22T14:03:00.893Z,8.03
2023-02-22T14:05:51.798Z,8.02
2023-02-22T14:08:45.685Z,7.68
2023-02-22T14:11:56.645Z,7.22
2023-02-22T14:14:25.928Z,7.18
2023-02-22T14:17:23.790Z,8.45
2023-02-22T14:20:21.593Z,8.60
2023-02-22T14:22:52.415Z,8.13
2023-02-22T14:25:37.277Z,8.27
2023-02-22T14:28:06.949Z,7.07
2023-02-22T14:30:38.724Z,6.72
2023-02-22T14:33:47.124Z,6.75
2023-02-22T14:36:16.901Z,7.22
2023-02-22T14:38:46.769Z,6.70
2023-02-22T14:41:17.949Z,6.05
2023-02-22T14:43:47.366Z,6.47
2023-02-22T14:46:21.278Z,6.10
2023-02-22T14:48:53.274Z,6.40
2023-02-22T14:51:29.100Z,7.22
2023-02-22T14:54:04.626Z,6.30
2023-02-22T14:56:41.093Z,6.45
2023-02-22T14:59:21.092Z,7.25
2023-02-22T15:02:02.236Z,6.65
2023-02-22T15:04:37.821Z,5.53
2023-02-22T15:07:22.448Z,6.38
2023-02-22T15:09:50.302Z,5.93
2023-02-22T15:12:29.811Z,5.65
2023-02-22T15:15:14.721Z,5.97
2023-02-22T15:17:46.208Z,6.28
2023-02-22T15:20:17.591Z,6.45
2023-02-22T15:22:46.806Z,6.30
2023-02-22T15:25:14.991Z,6.00
2023-02-22T15:27:47.950Z,5.85
2023-02-22T15:30:21.223Z,6.03
2023-02-22T15:33:03.221Z,6.20
2023-02-22T15:35:33.923Z,6.00
2023-02-22T15:38:06.161Z,6.50
2023-02-22T15:40:34.421Z,6.13
2023-02-22T15:43:04.247Z,6.03
2023-02-22T15:45:32.876Z,6.13
2023-02-22T15:48:00.750Z,5.63
2023-02-22T15:50:30.431Z,6.10
2023-02-22T15:53:01.703Z,5.82
2023-02-22T15:55:34.816Z,6.25
2023-02-22T15:58:11.195Z,5.65
2023-02-22T16:00:41.157Z,5.82
2023-02-22T16:03:12.146Z,6.10
2023-02-22T16:05:46.570Z,6.10
2023-02-22T16:08:19.799Z,6.37
2023-02-22T16:10:54.432Z,6.43
2023-02-22T16:13:32.936Z,5.28
2023-02-22T16:16:23.923Z,5.53
2023-02-22T16:18:53.393Z,5.47
2023-02-22T16:21:31.528Z,6.07
2023-02-22T16:24:15.273Z,5.80
2023-02-22T16:27:04.552Z,5.75
2023-02-22T16:29:32.493Z,6.93
2023-02-22T16:32:01.744Z,7.15
2023-02-22T16:34:30.228Z,6.13
2023-02-22T16:36:58.823Z,6.50
2023-02-22T16:39:28.430Z,6.50
2023-02-22T16:41:59.580Z,7.40
2023-02-22T16:44:27.790Z,7.65
2023-02-22T16:46:57.688Z,7.63
2023-02-22T16:49:25.709Z,7.80
2023-02-22T16:52:08.340Z,8.85
2023-02-22T16:54:45.591Z,8.23
2023-02-22T16:57:21.584Z,7.30
2023-02-22T16:59:52.876Z,7.20
2023-02-22T17:02:26.112Z,7.30
2023-02-22T17:04:54.056Z,7.73
2023-02-22T17:07:30.949Z,7.00
2023-02-22T17:09:59.260Z,8.40
2023-02-22T17:12:31.906Z,6.90
2023-02-22T17:14:59.797Z,10.70
2023-02-22T17:17:27.709Z,10.27
2023-02-22T17:19:55.855Z,9.30
2023-02-22T17:22:24.011Z,9.20
2023-02-22T17:24:52.138Z,8.27
2023-02-22T17:27:19.877Z,9.98
2023-02-22T17:29:49.625Z,8.98
2023-02-22T17:32:17.544Z,9.47
2023-02-22T17:34:45.313Z,9.80
2023-02-22T17:37:13.075Z,8.57
2023-02-22T17:39:40.864Z,9.35
2023-02-22T17:42:08.652Z,9.67
2023-02-22T17:44:36.712Z,8.87
2023-02-22T17:47:06.147Z,10.43
2023-02-22T17:49:33.850Z,10.77
2023-02-22T17:52:06.136Z,9.57
2023-02-22T17:54:34.098Z,10.63
2023-02-22T17:57:02.000Z,10.30
2023-02-22T17:59:29.690Z,10.63
2023-02-22T18:01:57.512Z,10.95
2023-02-22T18:04:26.646Z,10.53
2023-02-22T18:06:54.440Z,10.10
2023-02-22T18:09:23.335Z,10.77
2023-02-22T18:11:51.091Z,11.50
2023-02-22T18:14:18.785Z,11.30
2023-02-22T18:16:47.918Z,11.00
2023-02-22T18:19:20.037Z,10.00
2023-02-22T18:21:52.362Z,10.23
2023-02-22T18:24:20.119Z,10.27
2023-02-22T18:26:47.948Z,9.60
2023-02-22T18:29:15.822Z,9.77
2023-02-22T18:31:45.343Z,10.43
2023-02-22T18:34:13.438Z,9.87
2023-02-22T18:36:41.141Z,10.20
2023-02-22T18:39:12.996Z,12.40
2023-02-22T18:41:40.792Z,12.30
2023-02-22T18:44:11.098Z,12.13
2023-02-22T18:46:39.353Z,11.63
2023-02-22T18:49:07.193Z,11.20
2023-02-22T18:51:35.274Z,13.03
2023-02-22T18:54:02.992Z,14.67
2023-02-22T18:56:33.937Z,15.40
2023-02-22T18:59:03.414Z,14.40
2023-02-22T19:01:35.647Z,15.33
2023-02-22T19:04:03.573Z,14.27
2023-02-22T19:06:31.394Z,14.50
2023-02-22T19:09:02.098Z,14.53
2023-02-22T19:11:29.984Z,14.87
2023-02-22T19:13:59.597Z,14.73
2023-02-22T19:16:28.174Z,14.40
2023-02-22T19:18:57.983Z,15.80
2023-02-22T19:21:27.046Z,15.23
2023-02-22T19:24:01.222Z,13.40
2023-02-22T19:26:30.188Z,14.90
2023-02-22T19:29:04.636Z,14.70
2023-02-22T19:31:33.926Z,14.00
2023-02-22T19:34:03.126Z,16.03
2023-02-22T19:36:31.010Z,16.37
2023-02-22T19:39:01.554Z,17.13
2023-02-22T19:41:30.037Z,17.50
2023-02-22T19:43:59.839Z,16.77
2023-02-22T19:46:28.222Z,17.33
2023-02-22T19:48:56.446Z,18.37
2023-02-22T19:51:27.791Z,16.90
2023-02-22T19:53:58.818Z,18.20
2023-02-22T19:56:28.299Z,16.53
2023-02-22T19:58:58.028Z,17.93
2023-02-22T20:01:29.178Z,17.77
2023-02-22T20:03:59.861Z,18.07
2023-02-22T20:06:29.760Z,18.33
2023-02-22T20:08:58.089Z,19.00
2023-02-22T20:11:26.186Z,18.80
2023-02-22T20:13:55.548Z,18.10
2023-02-22T20:16:23.976Z,18.33
2023-02-22T20:18:54.430Z,18.20
2023-02-22T20:21:25.605Z,17.67
2023-02-22T20:23:57.069Z,18.33
2023-02-22T20:26:25.559Z,18.53
2023-02-22T20:29:03.952Z,17.57
2023-02-22T20:31:32.448Z,18.90
2023-02-22T20:34:02.331Z,17.87
2023-02-22T20:36:31.819Z,20.27
2023-02-22T20:39:00.617Z,19.77
2023-02-22T20:41:30.424Z,19.50
2023-02-22T20:43:59.856Z,20.27
2023-02-22T20:46:31.315Z,20.63
2023-02-22T20:49:01.983Z,21.33
2023-02-22T20:51:30.711Z,21.53
2023-02-22T20:54:00.027Z,21.10
2023-02-22T20:56:29.749Z,21.03
2023-02-22T20:59:03.126Z,22.47
2023-02-22T21:01:34.394Z,21.20
2023-02-22T21:04:04.818Z,22.40
2023-02-22T21:06:35.306Z,21.77
2023-02-22T21:09:07.251Z,22.97
2023-02-22T21:11:35.576Z,21.77
2023-02-22T21:14:04.017Z,24.50
2023-02-22T21:16:34.181Z,23.10
2023-02-22T21:19:05.439Z,23.30
2023-02-22T21:21:33.763Z,23.20
2023-02-22T21:24:02.193Z,24.07
2023-02-22T21:26:32.613Z,23.47
2023-02-22T21:29:03.252Z,23.43
2023-02-22T21:31:32.390Z,23.17
2023-02-22T21:34:01.100Z,25.33
2023-02-22T21:36:31.951Z,23.93
2023-02-22T21:39:01.443Z,24.93
2023-02-22T21:41:32.235Z,24.03
2023-02-22T21:44:01.010Z,23.77
2023-02-22T21:46:30.427Z,25.27
2023-02-22T21:48:59.503Z,23.43
2023-02-22T21:51:33.848Z,25.07
2023-02-22T21:54:03.381Z,24.80
2023-02-22T21:56:34.224Z,25.30
2023-02-22T21:59:05.010Z,26.07
2023-02-22T22:01:37.813Z,26.73
2023-02-22T22:04:06.248Z,26.90
2023-02-22T22:06:36.732Z,25.98
2023-02-22T22:09:18.077Z,27.37
2023-02-22T22:11:51.014Z,26.67
2023-02-22T22:14:20.462Z,27.60
2023-02-22T22:16:49.076Z,27.20
2023-02-22T22:19:17.315Z,28.50
2023-02-22T22:21:48.864Z,26.00
2023-02-22T22:24:16.920Z,28.60
2023-02-22T22:26:45.076Z,28.77
2023-02-22T22:29:14.469Z,30.10
2023-02-22T22:31:42.424Z,29.00
2023-02-22T22:34:10.210Z,30.37
2023-02-22T22:36:41.977Z,29.37
2023-02-22T22:39:13.772Z,28.80
2023-02-22T22:41:45.388Z,28.30
2023-02-22T22:44:16.093Z,28.23
2023-02-22T22:46:49.002Z,29.40
2023-02-22T22:49:17.420Z,29.53
2023-02-22T22:51:47.295Z,29.77
2023-02-22T22:54:16.436Z,29.30
2023-02-22T22:56:44.225Z,30.43
2023-02-22T22:59:13.362Z,28.57
2023-02-22T23:01:44.720Z,29.60
2023-02-22T23:04:17.932Z,29.00
2023-02-22T23:06:49.864Z,29.37
2023-02-22T23:09:21.788Z,30.07
2023-02-22T23:11:53.275Z,28.10
2023-02-22T23:14:24.178Z,29.53
2023-02-22T23:16:56.494Z,30.23
2023-02-22T23:19:24.345Z,29.77
2023-02-22T23:21:52.167Z,31.87
2023-02-22T23:24:21.531Z,31.23
2023-02-22T23:26:49.476Z,33.70
2023-02-22T23:29:18.637Z,31.43
2023-02-22T23:31:48.458Z,33.37
2023-02-22T23:34:21.052Z,30.80
2023-02-22T23:36:54.271Z,33.77
2023-02-22T23:39:24.908Z,32.67
2023-02-22T23:41:53.806Z,31.23
2023-02-22T23:44:22.026Z,33.10
2023-02-22T23:46:55.136Z,31.97
2023-02-22T23:49:23.919Z,33.50
2023-02-22T23:51:52.551Z,32.93
2023-02-22T23:54:21.670Z,33.17
2023-02-22T23:56:56.603Z,32.97
2023-02-22T23:59:26.401Z,32.57
